Time;durP1;ratioP1;P1;durP2;ratioP2;P2;SDS_P1;SDS_P2;PMS_P1;PMS_P2;Temp;Humidity;BMP_temperature;BMP_pressure;BME280_temperature;BME280_humidity;BME280_pressure;Samples;Min_cycle;Max_cycle;Signal;HPM_P1;HPM_P2
2021/08/07 00:02:09;;;;;;;1.70;1.53;;;;;;;;;;5101955;28;20861;-94
2021/08/07 00:04:37;;;;;;;3.10;1.63;;;;;;;;;;5103868;28;20445;-95
2021/08/07 00:07:17;;;;;;;2.57;1.70;;;;;;;;;;5103039;28;20507;-94
2021/08/07 00:09:52;;;;;;;2.50;1.80;;;;;;;;;;5101796;28;20445;-95
2021/08/07 00:12:19;;;;;;;2.23;1.73;;;;;;;;;;5081748;28;20943;-95
2021/08/07 00:14:47;;;;;;;3.23;1.80;;;;;;;;;;5080896;28;20457;-95
2021/08/07 00:17:15;;;;;;;2.30;1.53;;;;;;;;;;5080947;28;20450;-94
2021/08/07 00:22:26;;;;;;;3.43;1.73;;;;;;;;;;5081675;28;20445;-94
2021/08/07 00:25:02;;;;;;;2.30;1.77;;;;;;;;;;5082385;28;20945;-95
2021/08/07 00:27:30;;;;;;;2.00;1.53;;;;;;;;;;5082428;28;20481;-94
2021/08/07 00:29:57;;;;;;;2.93;1.70;;;;;;;;;;5081726;28;20461;-95
2021/08/07 00:32:25;;;;;;;2.80;1.67;;;;;;;;;;5081566;28;20481;-95
2021/08/07 00:34:53;;;;;;;2.83;1.67;;;;;;;;;;5080462;28;20450;-95
2021/08/07 00:37:21;;;;;;;2.60;1.70;;;;;;;;;;5080175;28;20521;-95
2021/08/07 00:39:54;;;;;;;3.90;2.00;;;;;;;;;;5082148;28;20450;-94
2021/08/07 00:42:22;;;;;;;2.97;1.70;;;;;;;;;;5081823;28;20823;-94
2021/08/07 00:44:50;;;;;;;3.33;1.93;;;;;;;;;;5080862;28;20473;-94
2021/08/07 00:47:17;;;;;;;4.03;1.90;;;;;;;;;;5081379;28;20481;-94
2021/08/07 00:49:47;;;;;;;3.33;1.90;;;;;;;;;;5080667;28;20454;-93
2021/08/07 00:52:15;;;;;;;4.70;2.17;;;;;;;;;;5083498;28;20466;-93
2021/08/07 00:57:45;;;;;;;7.13;2.20;;;;;;;;;;5086250;28;20567;-94
2021/08/07 01:00:24;;;;;;;2.47;2.00;;;;;;;;;;5072693;28;20465;-95
2021/08/07 01:03:02;;;;;;;2.90;2.13;;;;;;;;;;5073495;28;20454;-95
2021/08/07 01:06:01;;;;;;;2.80;1.90;;;14.60;99.90;;;;;;5072409;28;20450;-94
2021/08/07 01:08:35;;;;;;;6.10;2.10;;;;;;;;;;5026670;28;20495;-93
2021/08/07 01:11:07;;;;;;;2.73;2.00;;;;;;;;;;5024936;28;20555;-94
2021/08/07 01:16:32;;;;;;;4.07;2.03;;;;;;;;;;5028722;28;20440;-95
2021/08/07 01:19:04;;;;;;;2.60;1.90;;;;;;;;;;5026279;28;20456;-96
2021/08/07 01:21:35;;;;;;;2.23;2.03;;;;;;;;;;5026646;28;20452;-94
2021/08/07 01:24:04;;;;;;;2.00;1.80;;;;;;;;;;5024187;28;20464;-94
2021/08/07 01:26:44;;;;;;;2.93;2.50;;;14.60;99.90;;;;;;5052885;28;20930;-94
2021/08/07 01:29:15;;;;;;;4.40;2.23;;;;;;;;;;5066003;28;20486;-95
2021/08/07 01:37:18;;;;;;;3.67;2.20;;;;;;;;;;5046325;28;20601;-93
2021/08/07 01:39:54;;;;;;;4.90;1.70;;;;;;;;;;5071710;28;20475;-93
2021/08/07 01:54:01;;;;;;;2.70;2.00;;;;;;;;;;5092880;28;20516;-95
2021/08/07 01:56:58;;;;;;;;;;;;;;;;;;;;;
2021/08/07 02:00:01;;;;;;;4.13;1.97;;;;;;;;;;5093219;28;20472;-96
2021/08/07 02:02:32;;;;;;;4.00;1.90;;;;;;;;;;4993547;28;20488;-95
2021/08/07 02:07:43;;;;;;;3.27;1.67;;;;;;;;;;4991483;28;20504;-95
2021/08/07 02:13:06;;;;;;;3.97;2.60;;;;;;;;;;4876528;29;20456;-96
2021/08/07 02:18:42;;;;;;;3.17;2.20;;;;;;;;;;4875459;29;20442;-96
2021/08/07 02:21:28;;;;;;;3.10;1.97;;;;;;;;;;4889764;29;20454;-95
2021/08/07 02:30:01;;;;;;;4.27;2.30;;;14.40;99.90;;;;;;5010970;28;20437;-95
2021/08/07 02:32:38;;;;;;;8.73;2.10;;;;;;;;;;5011685;28;20521;-96
2021/08/07 02:35:16;;;;;;;4.07;2.40;;;;;;;;;;5010492;28;20452;-95
2021/08/07 02:37:56;;;;;;;3.00;1.80;;;;;;;;;;5186090;22;20478;-95
2021/08/07 02:40:28;;;;;;;3.10;2.30;;;;;;;;;;5133187;28;20846;-95
2021/08/07 02:42:59;;;;;;;2.90;2.20;;;;;;;;;;5115463;28;20443;-95
2021/08/07 02:45:37;;;;;;;6.63;3.00;;;;;;;;;;5134051;28;20436;-95
2021/08/07 02:56:43;;;;;;;4.23;2.50;;;;;;;;;;5132134;28;20439;-95
2021/08/07 03:01:58;;;;;;;2.67;2.10;;;;;;;;;;5121699;22;20473;-95
2021/08/07 03:07:30;;;;;;;3.10;1.90;;;;;;;;;;5113922;28;20455;-95
2021/08/07 03:10:13;;;;;;;3.10;2.37;;;;;;;;;;5113494;28;20481;-95
2021/08/07 03:18:19;;;;;;;2.60;2.40;;;;;;;;;;5088709;28;20471;-95
2021/08/07 03:20:48;;;;;;;1.90;1.53;;;;;;;;;;5089671;28;20484;-95
2021/08/07 03:26:08;;;;;;;2.80;2.23;;;;;;;;;;5031241;28;20456;-95
2021/08/07 03:47:51;;;;;;;1.90;1.57;;;;;;;;;;5106951;28;20842;-94
2021/08/07 03:59:25;;;;;;;1.63;1.50;;;;;;;;;;5227783;22;20594;-95
2021/08/07 04:01:54;;;;;;;2.53;1.80;;;;;;;;;;5180148;22;20486;-95
2021/08/07 04:04:24;;;;;;;3.77;2.20;;;;;;;;;;5108187;28;20461;-95
2021/08/07 04:07:29;;;;;;;3.97;2.00;;;14.00;99.90;;;;;;5197114;22;20568;-94
2021/08/07 04:10:21;;;;;;;4.67;1.93;;;;;;;;;;5091542;28;20488;-95
2021/08/07 04:18:53;;;;;;;2.47;1.70;;;;;;;;;;5061335;28;20446;-95
2021/08/07 04:26:56;;;;;;;6.00;2.00;;;;;;;;;;5156396;27;20476;-95
2021/08/07 04:29:33;;;;;;;3.23;1.90;;;;;;;;;;5109458;28;20491;-95
2021/08/07 04:38:01;;;;;;;5.53;2.30;;;;;;;;;;5121012;22;20475;-95
2021/08/07 04:46:42;;;;;;;2.40;1.73;;;;;;;;;;5133353;28;20421;-94
2021/08/07 05:06:11;;;;;;;2.83;1.60;;;;;;;;;;5132731;28;20440;-95
2021/08/07 05:08:38;;;;;;;1.57;1.20;;;;;;;;;;5125092;28;20870;-93
2021/08/07 05:11:06;;;;;;;5.97;1.80;;;;;;;;;;5105892;28;20444;-94
2021/08/07 05:13:34;;;;;;;3.87;1.57;;;;;;;;;;5100325;28;20484;-94
2021/08/07 05:16:01;;;;;;;4.03;1.30;;;;;;;;;;5102221;28;20494;-95
2021/08/07 05:18:28;;;;;;;4.40;1.43;;;;;;;;;;5093259;28;20460;-94
2021/08/07 05:20:56;;;;;;;2.23;1.40;;;;;;;;;;5093556;28;20448;-94
2021/08/07 05:23:29;;;;;;;4.40;1.57;;;;;;;;;;5097582;28;20443;-94
2021/08/07 05:26:18;;;;;;;2.00;1.40;;;15.70;99.90;;;;;;5096883;28;20461;-93
2021/08/07 05:28:47;;;;;;;4.43;1.80;;;;;;;;;;5096965;28;20465;-93
2021/08/07 05:31:14;;;;;;;3.13;1.40;;;;;;;;;;5096693;28;20517;-93
2021/08/07 05:33:42;;;;;;;1.57;1.03;;;;;;;;;;5093709;28;20433;-94
2021/08/07 05:36:09;;;;;;;1.40;1.30;;;;;;;;;;5091751;28;20452;-93
2021/08/07 05:39:14;;;;;;;3.10;1.10;;;16.40;99.90;;;;;;5095384;28;20433;-94
2021/08/07 05:41:41;;;;;;;3.20;1.50;;;;;;;;;;5096144;28;20441;-92
2021/08/07 05:44:08;;;;;;;3.07;1.10;;;;;;;;;;5096808;28;20425;-93
2021/08/07 05:46:35;;;;;;;1.40;1.30;;;;;;;;;;5098753;28;20535;-93
2021/08/07 05:49:02;;;;;;;3.20;1.40;;;;;;;;;;5098410;28;20484;-92
2021/08/07 05:51:30;;;;;;;3.13;1.33;;;;;;;;;;5085320;28;20481;-93
2021/08/07 05:53:57;;;;;;;3.27;1.43;;;;;;;;;;5079557;28;20937;-91
2021/08/07 05:56:25;;;;;;;2.70;1.40;;;17.10;99.90;;;;;;5078598;28;20823;-93
2021/08/07 05:58:53;;;;;;;2.47;1.40;;;;;;;;;;5075879;28;20477;-92
2021/08/07 06:01:20;;;;;;;1.07;0.97;;;;;;;;;;5075374;28;20457;-93
2021/08/07 06:03:47;;;;;;;2.70;1.53;;;;;;;;;;5072485;28;20450;-93
2021/08/07 06:06:14;;;;;;;2.50;1.20;;;;;;;;;;5077296;28;20473;-93
2021/08/07 06:08:41;;;;;;;2.30;1.20;;;;;;;;;;5077771;28;20485;-94
2021/08/07 06:11:09;;;;;;;1.67;1.00;;;;;;;;;;5080896;28;20561;-96
2021/08/07 06:13:38;;;;;;;1.30;1.00;;;;;;;;;;5084261;28;20482;-93
2021/08/07 06:16:06;;;;;;;4.00;1.70;;;;;;;;;;5082007;28;20438;-95
2021/08/07 06:18:38;;;;;;;1.97;1.40;;;;;;;;;;5078018;28;20964;-95
2021/08/07 06:21:05;;;;;;;3.20;1.33;;;;;;;;;;5074311;28;20442;-95
2021/08/07 06:23:33;;;;;;;1.50;1.13;;;;;;;;;;5074075;28;20541;-95
2021/08/07 06:26:00;;;;;;;4.73;1.50;;;;;;;;;;5078133;28;20450;-95
2021/08/07 06:28:28;;;;;;;2.23;1.57;;;;;;;;;;5076605;28;20487;-96
2021/08/07 06:30:57;;;;;;;2.10;1.50;;;;;;;;;;5077705;28;20522;-93
2021/08/07 06:33:35;;;;;;;1.90;1.07;;;;;;;;;;5079046;28;20462;-95
2021/08/07 06:36:10;;;;;;;2.03;1.23;;;18.60;99.90;;;;;;5028779;28;20465;-93
2021/08/07 06:38:37;;;;;;;2.17;1.13;;;;;;;;;;5075084;28;20450;-91
2021/08/07 06:41:04;;;;;;;5.27;1.00;;;;;;;;;;5074276;28;20450;-91
2021/08/07 06:43:53;;;;;;;2.07;1.10;;;18.70;99.90;;;;;;5086746;28;20446;-89
2021/08/07 06:46:22;;;;;;;2.90;1.37;;;18.90;99.90;;;;;;5076150;28;20434;-91
2021/08/07 06:48:49;;;;;;;3.63;1.00;;;;;;;;;;5076782;28;20506;-91
2021/08/07 06:51:19;;;;;;;3.83;1.50;;;18.80;99.90;;;;;;5090337;28;20476;-95
2021/08/07 06:53:47;;;;;;;1.23;1.00;;;;;;;;;;5103760;28;20799;-93
2021/08/07 06:56:15;;;;;;;2.10;1.10;;;19.30;99.90;;;;;;5100878;28;20460;-90
2021/08/07 06:58:51;;;;;;;2.03;1.20;;;;;;;;;;5190682;22;21010;-95
2021/08/07 07:01:18;;;;;;;9.93;1.50;;;;;;;;;;5167303;22;20495;-95
2021/08/07 07:04:27;;;;;;;3.20;1.10;;;20.80;99.90;;;;;;5126223;28;20546;-94
2021/08/07 07:06:57;;;;;;;1.87;1.17;;;;;;;;;;5119184;28;20503;-93
2021/08/07 07:09:24;;;;;;;2.13;1.43;;;;;;;;;;5101908;28;20480;-90
2021/08/07 07:11:54;;;;;;;1.70;1.17;;;;;;;;;;5105848;28;20512;-93
2021/08/07 07:14:21;;;;;;;2.47;1.17;;;;;;;;;;5112056;28;20455;-94
2021/08/07 07:16:55;;;;;;;1.73;0.90;;;;;;;;;;5143515;22;20476;-96
2021/08/07 07:30:22;;;;;;;2.53;1.03;;;19.40;99.90;;;;;;3093041;22;20644;-94
2021/08/07 07:38:38;;;;;;;1.80;1.30;;;19.10;99.90;;;;;;6185972;22;20375;31
2021/08/07 07:49:40;;;;;;;2.50;1.00;;;20.80;99.90;;;;;;5353259;23;20488;-94
2021/08/07 07:54:36;;;;;;;1.20;1.10;;;;;;;;;;5077880;22;20497;-95
2021/08/07 07:57:04;;;;;;;3.63;1.40;;;;;;;;;;5035791;23;20462;-91
2021/08/07 08:02:10;;;;;;;1.67;1.37;;;;;;;;;;5319517;22;20497;-94
2021/08/07 08:08:11;;;;;;;1.97;1.40;;;20.60;99.90;;;;;;5749481;23;20559;-94
2021/08/07 08:51:09;;;;;;;4.40;1.20;;;;;;;;;;5086709;23;20527;-95
2021/08/07 10:07:29;;;;;;;3.10;1.60;;;;;;;;;;5057736;28;20474;-93
2021/08/07 10:10:06;;;;;;;4.30;1.87;;;;;;;;;;5068152;28;20457;-95
2021/08/07 10:12:58;;;;;;;3.90;1.80;;;18.30;99.90;;;;;;5060120;23;20527;-94
2021/08/07 10:18:14;;;;;;;2.60;1.80;;;17.90;99.90;;;;;;5013114;28;20515;-94
2021/08/07 10:20:44;;;;;;;4.00;1.63;;;17.80;99.90;;;;;;4981268;28;20500;-96
2021/08/07 10:23:14;;;;;;;5.77;1.50;;;17.60;99.90;;;;;;4982815;28;20505;-94
2021/08/07 10:25:46;;;;;;;5.10;1.80;;;17.40;99.90;;;;;;4939211;28;20450;-95
2021/08/07 10:28:25;;;;;;;2.60;1.83;;;17.30;99.90;;;;;;4965095;29;20536;-93
2021/08/07 10:30:59;;;;;;;2.57;1.60;;;17.20;99.90;;;;;;4954879;28;20457;-96
2021/08/07 10:33:27;;;;;;;2.20;1.90;;;17.20;99.90;;;;;;4964489;29;20455;-94
2021/08/07 10:35:55;;;;;;;6.50;1.67;;;;;;;;;;4957911;29;20459;-95
2021/08/07 10:38:24;;;;;;;3.40;1.50;;;;;;;;;;4959032;29;20466;-93
2021/08/07 10:40:51;;;;;;;5.60;1.70;;;;;;;;;;4957753;29;20869;-93
2021/08/07 10:43:21;;;;;;;2.53;1.80;;;;;;;;;;4958551;29;20455;-95
2021/08/07 10:45:49;;;;;;;3.00;2.00;;;17.10;99.90;;;;;;4961967;28;20509;-93
2021/08/07 10:48:35;;;;;;;2.90;1.90;;;17.10;99.90;;;;;;4979390;28;20529;-92
2021/08/07 10:51:30;;;;;;;3.67;1.63;;;17.10;99.90;;;;;;4971833;28;20442;-94
2021/08/07 10:54:00;;;;;;;3.63;2.23;;;17.20;99.90;;;;;;4970904;28;20874;-94
2021/08/07 10:56:37;;;;;;;2.07;1.67;;;17.10;99.90;;;;;;4969867;28;21002;-93
2021/08/07 10:59:43;;;;;;;3.80;1.63;;;17.10;99.90;;;;;;4978552;28;20466;-92
2021/08/07 11:02:22;;;;;;;3.50;1.93;;;17.10;99.90;;;;;;4976919;28;20805;-93
2021/08/07 11:04:52;;;;;;;4.10;2.17;;;17.10;99.90;;;;;;4980191;28;20534;-94
2021/08/07 11:07:21;;;;;;;3.90;2.47;;;17.20;99.90;;;;;;5008872;28;20492;-93
2021/08/07 11:10:08;;;;;;;5.90;2.13;;;17.00;99.90;;;;;;5017427;28;20466;-92
2021/08/07 11:12:38;;;;;;;2.93;2.27;;;;;;;;;;5009735;28;20453;-92
2021/08/07 11:15:13;;;;;;;5.73;2.00;;;16.90;99.90;;;;;;5016470;28;20484;-92
2021/08/07 11:17:51;;;;;;;3.37;2.30;;;17.00;99.90;;;;;;5010199;28;20920;-92
2021/08/07 11:20:39;;;;;;;3.53;2.20;;;17.00;99.90;;;;;;5012050;28;20492;-93
2021/08/07 11:23:14;;;;;;;4.07;2.43;;;16.90;99.90;;;;;;5012709;28;20453;-89
2021/08/07 11:26:03;;;;;;;3.00;2.20;;;17.00;99.90;;;;;;5009483;28;20460;-89
2021/08/07 11:28:31;;;;;;;3.30;2.57;;;;;;;;;;5008589;28;20447;-88
2021/08/07 11:31:19;;;;;;;5.57;2.50;;;16.90;99.90;;;;;;5013108;28;20445;-88
2021/08/07 11:34:21;;;;;;;7.67;2.83;;;16.90;99.90;;;;;;5008685;28;20457;-89
2021/08/07 11:37:19;;;;;;;3.53;2.57;;;17.00;99.90;;;;;;5006499;28;20467;-91
2021/08/07 11:40:11;;;;;;;4.93;2.67;;;17.00;99.90;;;;;;5013848;28;20496;-90
2021/08/07 11:42:54;;;;;;;3.83;2.60;;;17.00;99.90;;;;;;4981742;28;20445;-89
2021/08/07 11:45:23;;;;;;;2.70;2.27;;;16.70;99.90;;;;;;5015126;28;20445;-93
2021/08/07 11:47:52;;;;;;;3.80;2.50;;;16.90;99.90;;;;;;5013783;28;20468;-90
2021/08/07 11:50:20;;;;;;;3.23;2.20;;;;;;;;;;5013962;28;20959;-90
2021/08/07 11:52:47;;;;;;;3.80;2.30;;;;;;;;;;5014686;28;20821;-86
2021/08/07 11:55:14;;;;;;;5.97;3.00;;;;;;;;;;5013111;28;20444;-88
2021/08/07 11:57:41;;;;;;;4.07;2.57;;;17.10;99.90;;;;;;5013660;28;20501;-89
2021/08/07 12:00:26;;;;;;;2.13;1.93;;;16.90;99.90;;;;;;5008467;28;20492;-89
2021/08/07 12:03:01;;;;;;;2.83;2.10;;;17.60;99.90;;;;;;5015084;28;20449;-92
2021/08/07 12:05:28;;;;;;;7.60;2.60;;;;;;;;;;5011310;28;20471;-93
2021/08/07 12:08:04;;;;;;;4.07;2.57;;;17.10;99.90;;;;;;5013788;28;20456;-92
2021/08/07 12:10:31;;;;;;;5.07;3.00;;;;;;;;;;5014152;28;20443;-93
2021/08/07 12:12:59;;;;;;;5.70;2.30;;;;;;;;;;5013725;28;20448;-94
2021/08/07 12:15:27;;;;;;;3.47;2.60;;;17.20;99.90;;;;;;5014123;28;20482;-89
2021/08/07 12:17:59;;;;;;;3.50;2.47;;;;;;;;;;5014079;28;20445;-90
2021/08/07 12:20:28;;;;;;;4.03;2.13;;;17.40;99.90;;;;;;5011184;28;20498;-93
2021/08/07 12:22:57;;;;;;;4.97;2.57;;;17.10;99.90;;;;;;5014341;28;20448;-90
2021/08/07 12:25:25;;;;;;;3.33;2.17;;;;;;;;;;5013517;28;20476;-89
2021/08/07 12:28:11;;;;;;;2.93;2.30;;;17.00;99.90;;;;;;5013711;28;20478;-90
2021/08/07 12:30:54;;;;;;;3.17;2.53;;;17.00;99.90;;;;;;5011148;28;20464;-93
2021/08/07 12:33:22;;;;;;;4.13;2.00;;;17.00;99.90;;;;;;5014266;28;20436;-91
2021/08/07 12:35:50;;;;;;;3.97;2.63;;;17.00;99.90;;;;;;5016848;28;20449;-90
2021/08/07 12:38:19;;;;;;;6.20;2.57;;;17.10;99.90;;;;;;5012802;28;20803;-91
2021/08/07 12:40:48;;;;;;;3.80;2.57;;;17.20;99.90;;;;;;5008811;28;20484;-90
2021/08/07 12:43:15;;;;;;;4.07;2.53;;;;;;;;;;5011493;28;20469;-91
2021/08/07 12:45:44;;;;;;;3.47;2.80;;;17.20;99.90;;;;;;5010211;28;20444;-89
2021/08/07 12:48:11;;;;;;;3.40;2.80;;;17.00;99.90;;;;;;5013100;28;20441;-88
2021/08/07 12:50:38;;;;;;;3.63;2.77;;;;;;;;;;5009571;28;20793;-91
2021/08/07 12:53:07;;;;;;;2.50;2.30;;;16.70;99.90;;;;;;5008327;28;20531;-89
2021/08/07 12:55:47;;;;;;;4.23;2.43;;;16.80;99.90;;;;;;5009188;28;20448;-89
2021/08/07 12:58:16;;;;;;;4.57;2.60;;;16.30;99.90;;;;;;5016392;28;20456;-88
2021/08/07 13:00:44;;;;;;;5.70;2.30;;;16.00;99.90;;;;;;5015882;28;20589;-87
2021/08/07 13:03:12;;;;;;;4.97;2.50;;;16.40;99.90;;;;;;5015860;28;20495;-88
2021/08/07 13:05:39;;;;;;;2.47;2.10;;;16.50;99.90;;;;;;5008584;28;20457;-88
2021/08/07 13:08:29;;;;;;;3.60;2.30;;;16.50;99.90;;;;;;4994488;28;20445;-87
2021/08/07 13:11:12;;;;;;;4.70;2.10;;;15.80;99.90;;;;;;4996029;28;20452;-88
2021/08/07 13:13:41;;;;;;;3.20;2.23;;;16.30;99.90;;;;;;4996337;28;20449;-89
2021/08/07 13:16:10;;;;;;;3.77;1.90;;;16.80;99.90;;;;;;4996076;28;20484;-87
2021/08/07 13:18:37;;;;;;;3.67;2.40;;;15.80;99.90;;;;;;4996313;28;20462;-88
2021/08/07 13:21:04;;;;;;;4.37;2.83;;;16.20;99.90;;;;;;4996778;28;20496;-93
2021/08/07 13:23:36;;;;;;;2.80;2.20;;;16.10;99.90;;;;;;4996252;28;20453;-90
2021/08/07 13:26:05;;;;;;;4.67;2.43;;;16.30;99.90;;;;;;4997048;28;20456;-86
2021/08/07 13:28:32;;;;;;;2.70;2.37;;;;;;;;;;4995739;28;20821;-85
2021/08/07 13:30:59;;;;;;;3.60;2.03;;;;;;;;;;4995494;28;20460;-86
2021/08/07 13:33:29;;;;;;;3.00;2.50;;;15.40;99.90;;;;;;4995492;28;20464;-85
2021/08/07 13:35:57;;;;;;;2.33;2.00;;;15.80;99.90;;;;;;4995510;28;20451;-87
2021/08/07 13:38:24;;;;;;;6.07;2.20;;;15.90;99.90;;;;;;4990153;28;20449;-85
2021/08/07 13:40:52;;;;;;;1.77;0.97;;;;;;;;;;4990316;28;20460;-87
2021/08/07 13:43:19;;;;;;;2.07;1.40;;;;;;;;;;4995314;28;20449;-87
2021/08/07 13:45:46;;;;;;;1.93;1.43;;;15.60;99.90;;;;;;4995229;28;20469;-91
2021/08/07 13:48:13;;;;;;;5.00;1.80;;;;;;;;;;4993334;28;20816;-86
2021/08/07 13:50:41;;;;;;;3.63;1.50;;;15.50;99.90;;;;;;4994913;28;21003;-85
2021/08/07 13:53:08;;;;;;;2.80;1.90;;;;;;;;;;4990566;28;20449;-85
2021/08/07 13:55:35;;;;;;;5.37;1.63;;;;;;;;;;4994957;28;20453;-86
2021/08/07 13:58:02;;;;;;;3.03;1.90;;;;;;;;;;4995012;28;20461;-86
2021/08/07 14:00:30;;;;;;;3.10;1.97;;;;;;;;;;4994672;28;20457;-85
2021/08/07 14:02:57;;;;;;;3.07;1.80;;;;;;;;;;4994870;28;20449;-85
2021/08/07 14:05:24;;;;;;;2.90;2.03;;;;;;;;;;4994820;28;20461;-84
2021/08/07 14:07:52;;;;;;;2.10;1.73;;;15.30;99.90;;;;;;4989965;28;20476;-87
2021/08/07 14:10:19;;;;;;;2.83;1.93;;;15.40;99.90;;;;;;4994915;28;20489;-84
2021/08/07 14:12:46;;;;;;;3.07;1.70;;;;;;;;;;4994631;28;20476;-84
2021/08/07 14:15:13;;;;;;;3.90;1.73;;;;;;;;;;4994412;28;20492;-85
2021/08/07 14:17:40;;;;;;;1.63;1.40;;;;;;;;;;4994750;28;20458;-86
2021/08/07 14:20:08;;;;;;;1.70;1.60;;;15.10;99.90;;;;;;4994473;28;20933;-87
2021/08/07 14:22:35;;;;;;;2.67;1.90;;;;;;;;;;4993514;28;20453;-86
2021/08/07 14:25:04;;;;;;;2.53;1.93;;;15.10;99.90;;;;;;4994521;28;20457;-85
2021/08/07 14:27:31;;;;;;;2.77;1.60;;;;;;;;;;4994373;28;20449;-86
2021/08/07 14:29:58;;;;;;;1.97;1.70;;;14.80;99.90;;;;;;4994357;28;20464;-86
2021/08/07 14:32:25;;;;;;;3.80;1.60;;;;;;;;;;4994638;28;20988;-86
2021/08/07 14:34:53;;;;;;;5.13;1.53;;;;;;;;;;4994356;28;20765;-86
2021/08/07 14:37:21;;;;;;;1.93;1.60;;;;;;;;;;4992994;28;20861;-84
2021/08/07 14:39:48;;;;;;;1.87;1.70;;;;;;;;;;4994587;28;20821;-87
2021/08/07 14:42:18;;;;;;;3.00;2.10;;;15.20;99.90;;;;;;4994585;28;20504;-88
2021/08/07 14:44:45;;;;;;;3.47;1.53;;;;;;;;;;4994257;28;20512;-86
2021/08/07 14:47:12;;;;;;;2.63;1.40;;;;;;;;;;4994061;28;20854;-89
2021/08/07 14:49:39;;;;;;;1.67;1.50;;;;;;;;;;4994828;28;20453;-86
2021/08/07 14:52:06;;;;;;;2.43;1.30;;;;;;;;;;4992778;28;20504;-88
2021/08/07 14:54:33;;;;;;;2.30;1.53;;;;;;;;;;4995080;28;20460;-89
2021/08/07 14:57:01;;;;;;;1.07;0.87;;;;;;;;;;4994066;28;20450;-87
2021/08/07 14:59:29;;;;;;;2.10;1.67;;;15.00;99.90;;;;;;4993622;28;20457;-86
2021/08/07 15:01:56;;;;;;;2.87;1.27;;;;;;;;;;4994087;28;20452;-89
2021/08/07 15:04:23;;;;;;;1.50;1.37;;;;;;;;;;4993785;28;20453;-88
2021/08/07 15:06:52;;;;;;;2.03;1.60;;;;;;;;;;4992607;28;20461;-89
2021/08/07 15:09:19;;;;;;;6.17;1.90;;;;;;;;;;4988329;28;20492;-86
2021/08/07 15:11:46;;;;;;;1.40;1.30;;;;;;;;;;4991525;28;20608;-92
2021/08/07 15:14:13;;;;;;;2.03;1.80;;;;;;;;;;4993298;28;20950;-87
2021/08/07 15:16:42;;;;;;;1.50;1.30;;;;;;;;;;4993306;28;21000;-86
2021/08/07 15:19:09;;;;;;;2.70;1.10;;;14.90;99.90;;;;;;4992992;28;20458;-86
2021/08/07 15:21:36;;;;;;;1.90;1.50;;;;;;;;;;4989952;28;20461;-86
2021/08/07 15:24:03;;;;;;;2.40;1.70;;;;;;;;;;4992151;28;20445;-87
2021/08/07 15:26:30;;;;;;;2.07;1.50;;;;;;;;;;4994190;28;20456;-87
2021/08/07 15:28:58;;;;;;;2.80;1.47;;;;;;;;;;4992582;28;20456;-88
2021/08/07 15:31:25;;;;;;;1.50;1.40;;;;;;;;;;4993323;28;20500;-88
2021/08/07 15:33:53;;;;;;;1.67;1.47;;;15.10;99.90;;;;;;4993670;28;20848;-88
2021/08/07 15:36:20;;;;;;;2.13;1.50;;;;;;;;;;4993863;28;20454;-88
2021/08/07 15:38:47;;;;;;;1.97;1.77;;;;;;;;;;4995161;28;20442;-89
2021/08/07 15:41:15;;;;;;;1.40;1.30;;;;;;;;;;5000477;28;20448;-88
2021/08/07 15:43:42;;;;;;;2.20;1.50;;;;;;;;;;5014275;28;20444;-89
2021/08/07 15:46:09;;;;;;;1.33;1.23;;;;;;;;;;5006922;28;20460;-89
2021/08/07 15:48:36;;;;;;;2.20;1.70;;;;;;;;;;4994522;28;20433;-88
2021/08/07 15:51:05;;;;;;;2.53;1.63;;;15.20;99.90;;;;;;4986819;28;20850;-88
2021/08/07 15:53:32;;;;;;;1.87;1.37;;;;;;;;;;4993047;28;20488;-88
2021/08/07 15:55:59;;;;;;;2.30;1.30;;;;;;;;;;4993220;28;20977;-89
2021/08/07 15:58:30;;;;;;;1.40;1.20;;;;;;;;;;4993434;28;20481;-86
2021/08/07 16:00:57;;;;;;;2.07;1.33;;;;;;;;;;4992223;28;20499;-89
2021/08/07 16:03:24;;;;;;;2.30;1.70;;;;;;;;;;4994367;28;20454;-88
2021/08/07 16:05:51;;;;;;;1.53;1.27;;;;;;;;;;4989122;28;20460;-88
2021/08/07 16:08:19;;;;;;;1.70;1.30;;;15.50;99.90;;;;;;4994591;28;20460;-88
2021/08/07 16:10:46;;;;;;;3.63;1.40;;;;;;;;;;4997257;28;20457;-92
2021/08/07 16:13:14;;;;;;;1.70;1.23;;;15.10;99.90;;;;;;4993801;28;20792;-89
2021/08/07 16:15:41;;;;;;;2.33;1.20;;;15.50;99.90;;;;;;4992438;28;20489;-87
2021/08/07 16:18:08;;;;;;;3.40;1.70;;;;;;;;;;4991699;28;20453;-90
2021/08/07 16:20:35;;;;;;;2.70;1.57;;;14.90;99.90;;;;;;4997081;28;20548;-88
2021/08/07 16:23:02;;;;;;;1.53;1.23;;;;;;;;;;4995235;28;20949;-90
2021/08/07 16:25:33;;;;;;;2.13;1.50;;;15.20;99.90;;;;;;4997761;28;20453;-88
2021/08/07 16:28:00;;;;;;;2.40;1.83;;;;;;;;;;4992067;28;20452;-90
2021/08/07 16:30:27;;;;;;;56.40;45.37;;;;;;;;;;4996917;28;20449;-92
2021/08/07 16:32:54;;;;;;;5.90;4.37;;;;;;;;;;4999163;28;20472;-91
2021/08/07 16:35:22;;;;;;;13.80;8.13;;;;;;;;;;5001263;28;20438;-94
2021/08/07 16:37:49;;;;;;;3.03;1.80;;;;;;;;;;4998299;28;20491;-93
2021/08/07 16:40:20;;;;;;;1.37;1.10;;;;;;;;;;5000566;28;20479;-93
2021/08/07 16:42:49;;;;;;;1.33;1.20;;;15.20;99.90;;;;;;5001992;28;20765;-92
2021/08/07 16:45:16;;;;;;;13.17;8.17;;;;;;;;;;4999304;28;20461;-92
2021/08/07 16:47:43;;;;;;;3.70;1.73;;;;;;;;;;4999969;28;20463;-92
2021/08/07 16:50:11;;;;;;;1.13;1.03;;;;;;;;;;4996819;28;20461;-90
2021/08/07 16:52:38;;;;;;;9.43;4.33;;;;;;;;;;4998232;28;20489;-92
2021/08/07 16:55:06;;;;;;;1.80;1.70;;;15.30;99.90;;;;;;5001236;28;20453;-93
2021/08/07 16:57:33;;;;;;;1.90;1.47;;;;;;;;;;5004909;28;20470;-92
2021/08/07 17:00:11;;;;;;;4.40;1.10;;;;;;;;;;4999922;28;20452;-93
2021/08/07 17:02:41;;;;;;;1.30;1.10;;;;;;;;;;5003637;28;20929;-94
2021/08/07 17:05:08;;;;;;;1.20;1.10;;;;;;;;;;5004180;28;20456;-89
2021/08/07 17:07:35;;;;;;;2.27;0.97;;;;;;;;;;5002128;28;20449;-92
2021/08/07 17:10:03;;;;;;;1.70;1.13;;;;;;;;;;5002574;28;20441;-89
2021/08/07 17:12:31;;;;;;;7.70;1.60;;;;;;;;;;5002123;28;20503;-90
2021/08/07 17:14:58;;;;;;;5.70;1.93;;;;;;;;;;5000926;28;20489;-90
2021/08/07 17:17:27;;;;;;;1.10;0.90;;;15.20;99.90;;;;;;5000517;28;20457;-91
2021/08/07 17:19:54;;;;;;;2.73;1.30;;;15.90;99.90;;;;;;5001704;28;20453;-93
2021/08/07 17:22:25;;;;;;;2.67;1.17;;;;;;;;;;5003414;28;20468;-94
2021/08/07 17:24:54;;;;;;;1.27;1.00;;;;;;;;;;5000035;28;20484;-91
2021/08/07 17:27:21;;;;;;;2.83;1.83;;;;;;;;;;5001534;28;20546;-89
2021/08/07 17:29:48;;;;;;;1.87;1.03;;;;;;;;;;4998952;28;20461;-89
2021/08/07 17:32:15;;;;;;;1.40;1.20;;;;;;;;;;5001731;28;20495;-92
2021/08/07 17:34:45;;;;;;;1.67;1.40;;;15.20;99.90;;;;;;5008392;28;20450;-89
2021/08/07 17:37:19;;;;;;;3.20;1.40;;;;;;;;;;5003077;28;20457;-92
2021/08/07 17:39:47;;;;;;;1.43;1.20;;;;;;;;;;5004875;28;20448;-92
2021/08/07 17:42:14;;;;;;;3.57;1.07;;;;;;;;;;5007292;28;20446;-90
2021/08/07 17:44:41;;;;;;;2.03;1.27;;;;;;;;;;5006107;28;20441;-91
2021/08/07 17:49:50;;;;;;;4.40;1.47;;;15.10;99.90;;;;;;5030249;28;20433;-89
2021/08/07 17:52:18;;;;;;;1.20;1.03;;;;;;;;;;5026913;28;20487;-89
2021/08/07 17:54:45;;;;;;;1.60;0.73;;;;;;;;;;5028092;28;20807;-90
2021/08/07 17:57:12;;;;;;;1.10;0.90;;;;;;;;;;5027492;28;20472;-90
2021/08/07 17:59:44;;;;;;;0.40;0.33;;;15.10;99.90;;;;;;5028952;28;20870;-93
2021/08/07 18:02:11;;;;;;;2.40;0.53;;;;;;;;;;5018725;28;20440;-88
2021/08/07 18:04:39;;;;;;;1.13;0.97;;;;;;;;;;5023342;28;20448;-90
2021/08/07 18:07:10;;;;;;;1.00;0.90;;;15.00;99.90;;;;;;5014699;28;20449;-92
2021/08/07 18:09:42;;;;;;;0.73;0.70;;;15.20;99.90;;;;;;5020378;28;20471;-93
2021/08/07 18:14:51;;;;;;;3.60;0.90;;;;;;;;;;5030885;28;20443;-92
2021/08/07 18:17:21;;;;;;;1.30;0.70;;;;;;;;;;5028245;28;20512;-90
2021/08/07 18:22:47;;;;;;;0.67;0.47;;;15.20;99.90;;;;;;5024838;28;20452;-90
2021/08/07 18:25:15;;;;;;;3.77;0.90;;;;;;;;;;5019103;28;20936;-90
2021/08/07 18:27:44;;;;;;;1.00;0.77;;;;;;;;;;5021599;28;20433;-90
2021/08/07 18:32:52;;;;;;;0.83;0.37;;;15.20;99.90;;;;;;5026872;28;20488;-93
2021/08/07 18:35:20;;;;;;;1.30;0.80;;;15.00;99.90;;;;;;5036478;28;20509;-91
2021/08/07 18:37:48;;;;;;;1.10;0.80;;;15.20;99.90;;;;;;5031422;28;20452;-93
2021/08/07 18:40:16;;;;;;;0.73;0.70;;;;;;;;;;5022474;28;20435;-95
2021/08/07 18:42:44;;;;;;;0.70;0.60;;;;;;;;;;5029442;28;21028;-95
2021/08/07 18:45:15;;;;;;;0.60;0.60;;;;;;;;;;5025948;28;20457;-95
2021/08/07 18:47:54;;;;;;;2.20;1.47;;;;;;;;;;5024512;28;20504;-94
2021/08/07 18:50:21;;;;;;;0.77;0.70;;;;;;;;;;5025445;28;20445;-93
2021/08/07 18:53:16;;;;;;;5.10;3.67;;;15.10;99.90;;;;;;5023931;28;20478;-93
2021/08/07 18:55:45;;;;;;;2.80;2.20;;;;;;;;;;5028382;28;20455;-93
2021/08/07 18:58:18;;;;;;;2.80;2.13;;;15.10;99.90;;;;;;5029247;28;20476;-94
2021/08/07 19:00:47;;;;;;;1.83;0.80;;;;;;;;;;5021648;28;20440;-93
2021/08/07 19:03:19;;;;;;;0.80;0.80;;;;;;;;;;5001523;28;20504;-93
2021/08/07 19:06:32;;;;;;;3.93;1.90;;;15.00;99.90;;;;;;5010475;28;20425;-92
2021/08/07 19:09:11;;;;;;;1.77;1.67;;;15.00;99.90;;;;;;5007004;28;20492;-93
2021/08/07 19:11:39;;;;;;;0.90;0.70;;;;;;;;;;4965344;29;20465;-91
2021/08/07 19:16:58;;;;;;;1.07;0.87;;;14.90;99.90;;;;;;4985688;28;20477;-93
2021/08/07 19:19:25;;;;;;;0.93;0.80;;;;;;;;;;4983255;28;20442;-90
2021/08/07 19:22:20;;;;;;;1.13;1.03;;;14.80;99.90;;;;;;4979263;28;20453;-94